sensor_id;sensor_type;location;lat;lon;timestamp;P1;durP1;ratioP1;P2;durP2;ratioP2
30874;SDS011;17581;43.222;27.924;2023-06-22T00:02:24;23.45;;;14.48;;
30874;SDS011;17581;43.222;27.924;2023-06-22T00:04:50;29.10;;;14.93;;
30874;SDS011;17581;43.222;27.924;2023-06-22T00:07:15;26.88;;;15.48;;
30874;SDS011;17581;43.222;27.924;2023-06-22T00:09:41;27.60;;;17.60;;
30874;SDS011;17581;43.222;27.924;2023-06-22T00:12:06;27.00;;;17.33;;
30874;SDS011;17581;43.222;27.924;2023-06-22T00:14:32;24.50;;;17.52;;
30874;SDS011;17581;43.222;27.924;2023-06-22T00:17:05;28.50;;;17.55;;
30874;SDS011;17581;43.222;27.924;2023-06-22T00:19:31;21.58;;;17.70;;
30874;SDS011;17581;43.222;27.924;2023-06-22T00:21:57;24.60;;;17.92;;
30874;SDS011;17581;43.222;27.924;2023-06-22T00:24:25;28.70;;;18.88;;
30874;SDS011;17581;43.222;27.924;2023-06-22T00:26:50;29.88;;;17.63;;
30874;SDS011;17581;43.222;27.924;2023-06-22T00:29:16;28.80;;;19.27;;
30874;SDS011;17581;43.222;27.924;2023-06-22T00:31:43;29.85;;;20.67;;
30874;SDS011;17581;43.222;27.924;2023-06-22T00:34:09;41.00;;;21.05;;
30874;SDS011;17581;43.222;27.924;2023-06-22T00:36:35;35.95;;;20.20;;
30874;SDS011;17581;43.222;27.924;2023-06-22T00:39:01;33.50;;;20.13;;
30874;SDS011;17581;43.222;27.924;2023-06-22T00:41:26;45.67;;;18.48;;
30874;SDS011;17581;43.222;27.924;2023-06-22T00:43:55;21.25;;;14.48;;
30874;SDS011;17581;43.222;27.924;2023-06-22T00:46:21;27.02;;;15.90;;
30874;SDS011;17581;43.222;27.924;2023-06-22T00:48:48;30.10;;;16.23;;
30874;SDS011;17581;43.222;27.924;2023-06-22T00:51:14;28.20;;;17.50;;
30874;SDS011;17581;43.222;27.924;2023-06-22T00:53:40;30.60;;;18.95;;
30874;SDS011;17581;43.222;27.924;2023-06-22T00:56:08;46.00;;;22.33;;
30874;SDS011;17581;43.222;27.924;2023-06-22T00:58:34;31.88;;;20.95;;
30874;SDS011;17581;43.222;27.924;2023-06-22T01:01:01;35.95;;;21.75;;
30874;SDS011;17581;43.222;27.924;2023-06-22T01:03:27;52.47;;;22.25;;
30874;SDS011;17581;43.222;27.924;2023-06-22T01:05:53;39.67;;;23.25;;
30874;SDS011;17581;43.222;27.924;2023-06-22T01:11:07;51.65;;;21.80;;
30874;SDS011;17581;43.222;27.924;2023-06-22T01:13:39;37.05;;;22.40;;
30874;SDS011;17581;43.222;27.924;2023-06-22T01:18:40;42.25;;;21.27;;
30874;SDS011;17581;43.222;27.924;2023-06-22T01:21:07;47.22;;;23.25;;
30874;SDS011;17581;43.222;27.924;2023-06-22T01:23:42;52.03;;;23.83;;
30874;SDS011;17581;43.222;27.924;2023-06-22T01:31:18;34.55;;;20.95;;
30874;SDS011;17581;43.222;27.924;2023-06-22T01:33:46;26.17;;;17.30;;
30874;SDS011;17581;43.222;27.924;2023-06-22T01:36:21;30.30;;;19.10;;
30874;SDS011;17581;43.222;27.924;2023-06-22T01:38:47;33.55;;;17.90;;
30874;SDS011;17581;43.222;27.924;2023-06-22T01:41:14;18.70;;;11.95;;
30874;SDS011;17581;43.222;27.924;2023-06-22T01:43:41;22.05;;;13.95;;
30874;SDS011;17581;43.222;27.924;2023-06-22T01:46:07;19.70;;;10.15;;
30874;SDS011;17581;43.222;27.924;2023-06-22T01:48:33;17.15;;;10.63;;
30874;SDS011;17581;43.222;27.924;2023-06-22T01:50:59;11.20;;;9.55;;
30874;SDS011;17581;43.222;27.924;2023-06-22T01:53:25;14.00;;;8.48;;
30874;SDS011;17581;43.222;27.924;2023-06-22T01:55:50;19.88;;;9.02;;
30874;SDS011;17581;43.222;27.924;2023-06-22T01:58:16;14.52;;;9.98;;
30874;SDS011;17581;43.222;27.924;2023-06-22T02:00:48;13.75;;;8.52;;
30874;SDS011;17581;43.222;27.924;2023-06-22T02:03:19;22.15;;;9.95;;
30874;SDS011;17581;43.222;27.924;2023-06-22T02:05:55;13.65;;;9.27;;
30874;SDS011;17581;43.222;27.924;2023-06-22T02:08:30;16.77;;;9.77;;
30874;SDS011;17581;43.222;27.924;2023-06-22T02:10:59;16.63;;;9.60;;
30874;SDS011;17581;43.222;27.924;2023-06-22T02:13:27;18.38;;;9.77;;
30874;SDS011;17581;43.222;27.924;2023-06-22T02:15:52;19.33;;;9.60;;
30874;SDS011;17581;43.222;27.924;2023-06-22T02:18:19;18.38;;;10.75;;
30874;SDS011;17581;43.222;27.924;2023-06-22T02:20:45;21.20;;;10.02;;
30874;SDS011;17581;43.222;27.924;2023-06-22T02:23:11;11.98;;;9.25;;
30874;SDS011;17581;43.222;27.924;2023-06-22T02:25:37;21.73;;;11.85;;
30874;SDS011;17581;43.222;27.924;2023-06-22T02:28:03;22.58;;;13.25;;
30874;SDS011;17581;43.222;27.924;2023-06-22T02:30:29;29.33;;;14.57;;
30874;SDS011;17581;43.222;27.924;2023-06-22T02:32:54;21.35;;;15.27;;
30874;SDS011;17581;43.222;27.924;2023-06-22T02:35:27;38.80;;;17.15;;
30874;SDS011;17581;43.222;27.924;2023-06-22T02:37:59;34.42;;;16.08;;
30874;SDS011;17581;43.222;27.924;2023-06-22T02:40:26;24.90;;;15.55;;
30874;SDS011;17581;43.222;27.924;2023-06-22T02:42:51;34.05;;;18.20;;
30874;SDS011;17581;43.222;27.924;2023-06-22T02:45:17;31.25;;;17.58;;
30874;SDS011;17581;43.222;27.924;2023-06-22T02:47:43;38.28;;;16.10;;
30874;SDS011;17581;43.222;27.924;2023-06-22T02:50:08;35.03;;;15.45;;
30874;SDS011;17581;43.222;27.924;2023-06-22T02:52:34;41.33;;;17.83;;
30874;SDS011;17581;43.222;27.924;2023-06-22T02:55:00;30.75;;;16.30;;
30874;SDS011;17581;43.222;27.924;2023-06-22T02:57:25;32.30;;;17.58;;
30874;SDS011;17581;43.222;27.924;2023-06-22T02:59:51;22.80;;;12.05;;
30874;SDS011;17581;43.222;27.924;2023-06-22T03:02:16;22.35;;;12.57;;
30874;SDS011;17581;43.222;27.924;2023-06-22T03:04:42;20.92;;;11.23;;
30874;SDS011;17581;43.222;27.924;2023-06-22T03:07:08;18.98;;;10.82;;
30874;SDS011;17581;43.222;27.924;2023-06-22T03:09:33;15.18;;;10.95;;
30874;SDS011;17581;43.222;27.924;2023-06-22T03:11:59;16.17;;;10.23;;
30874;SDS011;17581;43.222;27.924;2023-06-22T03:14:25;18.33;;;9.85;;
30874;SDS011;17581;43.222;27.924;2023-06-22T03:16:51;29.05;;;11.65;;
30874;SDS011;17581;43.222;27.924;2023-06-22T03:19:16;20.25;;;10.25;;
30874;SDS011;17581;43.222;27.924;2023-06-22T03:21:42;18.98;;;11.30;;
30874;SDS011;17581;43.222;27.924;2023-06-22T03:24:07;16.90;;;11.95;;
30874;SDS011;17581;43.222;27.924;2023-06-22T03:26:33;27.60;;;11.77;;
30874;SDS011;17581;43.222;27.924;2023-06-22T03:28:59;20.98;;;11.75;;
30874;SDS011;17581;43.222;27.924;2023-06-22T03:31:25;24.92;;;11.98;;
30874;SDS011;17581;43.222;27.924;2023-06-22T03:33:50;24.92;;;11.85;;
30874;SDS011;17581;43.222;27.924;2023-06-22T03:36:16;30.88;;;13.00;;
30874;SDS011;17581;43.222;27.924;2023-06-22T03:38:46;20.58;;;11.65;;
30874;SDS011;17581;43.222;27.924;2023-06-22T03:41:12;23.80;;;11.88;;
30874;SDS011;17581;43.222;27.924;2023-06-22T03:43:38;34.50;;;11.18;;
30874;SDS011;17581;43.222;27.924;2023-06-22T03:46:04;26.17;;;11.68;;
30874;SDS011;17581;43.222;27.924;2023-06-22T03:48:30;67.65;;;14.32;;
30874;SDS011;17581;43.222;27.924;2023-06-22T03:50:55;22.55;;;9.40;;
30874;SDS011;17581;43.222;27.924;2023-06-22T03:53:21;18.55;;;8.63;;
30874;SDS011;17581;43.222;27.924;2023-06-22T03:55:50;13.98;;;9.18;;
30874;SDS011;17581;43.222;27.924;2023-06-22T03:58:17;25.55;;;9.95;;
30874;SDS011;17581;43.222;27.924;2023-06-22T04:00:45;110.72;;;18.80;;
30874;SDS011;17581;43.222;27.924;2023-06-22T04:03:14;54.03;;;13.07;;
30874;SDS011;17581;43.222;27.924;2023-06-22T04:05:40;28.17;;;10.95;;
30874;SDS011;17581;43.222;27.924;2023-06-22T04:08:06;40.80;;;11.82;;
30874;SDS011;17581;43.222;27.924;2023-06-22T04:10:31;28.60;;;9.63;;
30874;SDS011;17581;43.222;27.924;2023-06-22T04:12:57;20.30;;;9.75;;
30874;SDS011;17581;43.222;27.924;2023-06-22T04:15:22;20.98;;;8.90;;
30874;SDS011;17581;43.222;27.924;2023-06-22T04:17:48;21.92;;;8.35;;
30874;SDS011;17581;43.222;27.924;2023-06-22T04:20:16;27.23;;;9.00;;
30874;SDS011;17581;43.222;27.924;2023-06-22T04:22:41;18.70;;;9.95;;
30874;SDS011;17581;43.222;27.924;2023-06-22T04:25:07;48.55;;;11.25;;
30874;SDS011;17581;43.222;27.924;2023-06-22T04:27:33;38.53;;;8.82;;
30874;SDS011;17581;43.222;27.924;2023-06-22T04:30:05;36.58;;;8.68;;
30874;SDS011;17581;43.222;27.924;2023-06-22T04:32:35;58.08;;;11.38;;
30874;SDS011;17581;43.222;27.924;2023-06-22T04:35:01;42.03;;;10.77;;
30874;SDS011;17581;43.222;27.924;2023-06-22T04:37:29;36.70;;;9.57;;
30874;SDS011;17581;43.222;27.924;2023-06-22T04:39:57;23.48;;;9.05;;
30874;SDS011;17581;43.222;27.924;2023-06-22T04:42:24;42.08;;;11.05;;
30874;SDS011;17581;43.222;27.924;2023-06-22T04:44:53;64.55;;;12.98;;
30874;SDS011;17581;43.222;27.924;2023-06-22T04:47:18;21.88;;;10.25;;
30874;SDS011;17581;43.222;27.924;2023-06-22T04:49:44;58.42;;;10.60;;
30874;SDS011;17581;43.222;27.924;2023-06-22T04:52:11;29.52;;;8.77;;
30874;SDS011;17581;43.222;27.924;2023-06-22T04:54:39;50.40;;;10.45;;
30874;SDS011;17581;43.222;27.924;2023-06-22T04:57:13;34.00;;;10.13;;
30874;SDS011;17581;43.222;27.924;2023-06-22T04:59:40;40.13;;;9.50;;
30874;SDS011;17581;43.222;27.924;2023-06-22T05:02:07;31.50;;;12.57;;
30874;SDS011;17581;43.222;27.924;2023-06-22T05:04:33;18.23;;;8.13;;
30874;SDS011;17581;43.222;27.924;2023-06-22T05:07:00;25.38;;;9.10;;
30874;SDS011;17581;43.222;27.924;2023-06-22T05:09:27;21.30;;;8.57;;
30874;SDS011;17581;43.222;27.924;2023-06-22T05:11:53;15.48;;;9.48;;
30874;SDS011;17581;43.222;27.924;2023-06-22T05:14:19;30.60;;;9.80;;
30874;SDS011;17581;43.222;27.924;2023-06-22T05:16:45;41.70;;;10.00;;
30874;SDS011;17581;43.222;27.924;2023-06-22T05:19:11;27.15;;;9.45;;
30874;SDS011;17581;43.222;27.924;2023-06-22T05:21:37;32.83;;;8.63;;
30874;SDS011;17581;43.222;27.924;2023-06-22T05:24:03;33.83;;;8.82;;
30874;SDS011;17581;43.222;27.924;2023-06-22T05:26:30;39.53;;;10.02;;
30874;SDS011;17581;43.222;27.924;2023-06-22T05:28:56;19.65;;;8.50;;
30874;SDS011;17581;43.222;27.924;2023-06-22T05:31:22;30.70;;;8.48;;
30874;SDS011;17581;43.222;27.924;2023-06-22T05:33:48;38.33;;;10.05;;
30874;SDS011;17581;43.222;27.924;2023-06-22T05:36:16;40.88;;;10.52;;
30874;SDS011;17581;43.222;27.924;2023-06-22T05:38:42;10.18;;;7.88;;
30874;SDS011;17581;43.222;27.924;2023-06-22T05:41:07;26.60;;;8.27;;
30874;SDS011;17581;43.222;27.924;2023-06-22T05:43:33;23.50;;;10.60;;
30874;SDS011;17581;43.222;27.924;2023-06-22T05:46:00;35.42;;;11.32;;
30874;SDS011;17581;43.222;27.924;2023-06-22T05:48:26;37.65;;;9.77;;
30874;SDS011;17581;43.222;27.924;2023-06-22T05:50:52;35.80;;;12.27;;
30874;SDS011;17581;43.222;27.924;2023-06-22T05:53:19;21.92;;;10.63;;
30874;SDS011;17581;43.222;27.924;2023-06-22T05:55:44;28.48;;;10.23;;
30874;SDS011;17581;43.222;27.924;2023-06-22T05:58:10;26.85;;;9.50;;
30874;SDS011;17581;43.222;27.924;2023-06-22T06:00:36;23.42;;;9.82;;
30874;SDS011;17581;43.222;27.924;2023-06-22T06:03:02;35.45;;;11.77;;
30874;SDS011;17581;43.222;27.924;2023-06-22T06:05:29;34.85;;;11.98;;
30874;SDS011;17581;43.222;27.924;2023-06-22T06:07:58;14.07;;;7.30;;
30874;SDS011;17581;43.222;27.924;2023-06-22T06:10:24;11.20;;;6.65;;
30874;SDS011;17581;43.222;27.924;2023-06-22T06:12:50;28.45;;;10.93;;
30874;SDS011;17581;43.222;27.924;2023-06-22T06:15:16;20.80;;;7.85;;
30874;SDS011;17581;43.222;27.924;2023-06-22T06:17:45;36.65;;;7.90;;
30874;SDS011;17581;43.222;27.924;2023-06-22T06:22:39;101.75;;;13.35;;
30874;SDS011;17581;43.222;27.924;2023-06-22T06:25:05;19.60;;;7.90;;
30874;SDS011;17581;43.222;27.924;2023-06-22T06:27:31;19.13;;;7.75;;
30874;SDS011;17581;43.222;27.924;2023-06-22T06:29:57;20.98;;;7.75;;
30874;SDS011;17581;43.222;27.924;2023-06-22T06:32:22;25.63;;;8.77;;
30874;SDS011;17581;43.222;27.924;2023-06-22T06:34:49;66.10;;;12.85;;
30874;SDS011;17581;43.222;27.924;2023-06-22T06:37:14;17.92;;;7.60;;
30874;SDS011;17581;43.222;27.924;2023-06-22T06:39:40;18.40;;;7.18;;
30874;SDS011;17581;43.222;27.924;2023-06-22T06:42:06;33.03;;;10.23;;
30874;SDS011;17581;43.222;27.924;2023-06-22T06:44:32;18.80;;;6.90;;
30874;SDS011;17581;43.222;27.924;2023-06-22T06:46:58;36.63;;;10.02;;
30874;SDS011;17581;43.222;27.924;2023-06-22T06:49:33;21.73;;;7.13;;
30874;SDS011;17581;43.222;27.924;2023-06-22T06:52:02;26.10;;;8.23;;
30874;SDS011;17581;43.222;27.924;2023-06-22T06:54:27;19.08;;;8.40;;
30874;SDS011;17581;43.222;27.924;2023-06-22T06:56:53;34.78;;;8.25;;
30874;SDS011;17581;43.222;27.924;2023-06-22T06:59:19;39.88;;;8.00;;
30874;SDS011;17581;43.222;27.924;2023-06-22T07:01:45;43.28;;;14.35;;
30874;SDS011;17581;43.222;27.924;2023-06-22T07:04:13;10.15;;;6.85;;
30874;SDS011;17581;43.222;27.924;2023-06-22T07:06:39;15.32;;;7.70;;
30874;SDS011;17581;43.222;27.924;2023-06-22T07:09:05;30.05;;;8.65;;
30874;SDS011;17581;43.222;27.924;2023-06-22T07:11:30;24.52;;;9.52;;
30874;SDS011;17581;43.222;27.924;2023-06-22T07:13:56;18.60;;;7.93;;
30874;SDS011;17581;43.222;27.924;2023-06-22T07:16:22;22.45;;;7.90;;
30874;SDS011;17581;43.222;27.924;2023-06-22T07:18:48;20.02;;;9.13;;
30874;SDS011;17581;43.222;27.924;2023-06-22T07:21:14;28.98;;;9.05;;
30874;SDS011;17581;43.222;27.924;2023-06-22T07:30:25;9.82;;;7.00;;
30874;SDS011;17581;43.222;27.924;2023-06-22T07:32:51;17.00;;;7.47;;
30874;SDS011;17581;43.222;27.924;2023-06-22T07:35:17;8.65;;;7.10;;
30874;SDS011;17581;43.222;27.924;2023-06-22T07:37:46;25.48;;;9.13;;
30874;SDS011;17581;43.222;27.924;2023-06-22T07:40:12;16.30;;;9.52;;
30874;SDS011;17581;43.222;27.924;2023-06-22T07:42:38;22.80;;;8.93;;
30874;SDS011;17581;43.222;27.924;2023-06-22T07:45:04;31.92;;;9.90;;
30874;SDS011;17581;43.222;27.924;2023-06-22T07:47:33;18.45;;;9.13;;
30874;SDS011;17581;43.222;27.924;2023-06-22T07:50:01;21.80;;;8.50;;
30874;SDS011;17581;43.222;27.924;2023-06-22T07:52:27;18.85;;;8.25;;
30874;SDS011;17581;43.222;27.924;2023-06-22T07:54:54;15.90;;;7.97;;
30874;SDS011;17581;43.222;27.924;2023-06-22T07:57:20;72.75;;;13.70;;
30874;SDS011;17581;43.222;27.924;2023-06-22T07:59:46;17.85;;;8.35;;
30874;SDS011;17581;43.222;27.924;2023-06-22T08:02:12;31.52;;;10.70;;
30874;SDS011;17581;43.222;27.924;2023-06-22T08:04:38;28.55;;;9.90;;
30874;SDS011;17581;43.222;27.924;2023-06-22T08:07:04;22.23;;;8.73;;
30874;SDS011;17581;43.222;27.924;2023-06-22T08:09:36;26.88;;;9.57;;
30874;SDS011;17581;43.222;27.924;2023-06-22T08:12:02;93.45;;;13.73;;
30874;SDS011;17581;43.222;27.924;2023-06-22T08:14:29;41.97;;;10.38;;
30874;SDS011;17581;43.222;27.924;2023-06-22T08:16:55;14.90;;;8.30;;
30874;SDS011;17581;43.222;27.924;2023-06-22T08:19:20;11.88;;;8.00;;
30874;SDS011;17581;43.222;27.924;2023-06-22T08:21:46;14.57;;;8.95;;
30874;SDS011;17581;43.222;27.924;2023-06-22T08:24:13;23.33;;;8.98;;
30874;SDS011;17581;43.222;27.924;2023-06-22T08:26:39;15.27;;;8.07;;
30874;SDS011;17581;43.222;27.924;2023-06-22T08:29:04;15.57;;;9.13;;
30874;SDS011;17581;43.222;27.924;2023-06-22T08:31:30;118.18;;;18.10;;
30874;SDS011;17581;43.222;27.924;2023-06-22T08:34:00;17.17;;;8.93;;
30874;SDS011;17581;43.222;27.924;2023-06-22T08:39:49;18.73;;;8.90;;
30874;SDS011;17581;43.222;27.924;2023-06-22T08:42:15;11.88;;;8.25;;
30874;SDS011;17581;43.222;27.924;2023-06-22T08:44:41;44.88;;;12.35;;
30874;SDS011;17581;43.222;27.924;2023-06-22T08:47:10;23.17;;;8.82;;
30874;SDS011;17581;43.222;27.924;2023-06-22T08:49:35;12.77;;;7.95;;
30874;SDS011;17581;43.222;27.924;2023-06-22T08:52:04;13.85;;;7.82;;
30874;SDS011;17581;43.222;27.924;2023-06-22T08:54:33;21.13;;;7.80;;
30874;SDS011;17581;43.222;27.924;2023-06-22T08:56:59;20.02;;;7.93;;
30874;SDS011;17581;43.222;27.924;2023-06-22T08:59:27;20.67;;;7.38;;
30874;SDS011;17581;43.222;27.924;2023-06-22T09:01:55;12.38;;;8.20;;
30874;SDS011;17581;43.222;27.924;2023-06-22T09:04:21;22.73;;;8.95;;
30874;SDS011;17581;43.222;27.924;2023-06-22T09:06:47;20.23;;;8.48;;
30874;SDS011;17581;43.222;27.924;2023-06-22T09:09:17;22.02;;;8.93;;
30874;SDS011;17581;43.222;27.924;2023-06-22T09:11:43;14.05;;;9.27;;
30874;SDS011;17581;43.222;27.924;2023-06-22T09:14:09;24.00;;;10.55;;
30874;SDS011;17581;43.222;27.924;2023-06-22T09:16:35;15.48;;;8.98;;
30874;SDS011;17581;43.222;27.924;2023-06-22T09:19:03;92.68;;;15.93;;
30874;SDS011;17581;43.222;27.924;2023-06-22T09:34:55;20.90;;;10.63;;
30874;SDS011;17581;43.222;27.924;2023-06-22T09:37:24;27.52;;;11.93;;
30874;SDS011;17581;43.222;27.924;2023-06-22T09:39:50;32.08;;;13.52;;
30874;SDS011;17581;43.222;27.924;2023-06-22T09:42:15;15.95;;;11.18;;
30874;SDS011;17581;43.222;27.924;2023-06-22T09:44:56;40.78;;;12.85;;
30874;SDS011;17581;43.222;27.924;2023-06-22T09:47:22;60.88;;;14.10;;
30874;SDS011;17581;43.222;27.924;2023-06-22T09:49:50;22.90;;;11.57;;
30874;SDS011;17581;43.222;27.924;2023-06-22T09:52:18;30.17;;;10.50;;
30874;SDS011;17581;43.222;27.924;2023-06-22T09:54:47;34.47;;;11.75;;
30874;SDS011;17581;43.222;27.924;2023-06-22T09:57:13;16.27;;;11.52;;
30874;SDS011;17581;43.222;27.924;2023-06-22T09:59:38;19.60;;;10.35;;
30874;SDS011;17581;43.222;27.924;2023-06-22T10:02:07;21.52;;;11.80;;
30874;SDS011;17581;43.222;27.924;2023-06-22T10:04:33;18.23;;;11.43;;
30874;SDS011;17581;43.222;27.924;2023-06-22T10:07:02;23.10;;;11.20;;
30874;SDS011;17581;43.222;27.924;2023-06-22T10:09:28;20.45;;;10.50;;
30874;SDS011;17581;43.222;27.924;2023-06-22T10:11:53;27.27;;;12.23;;
30874;SDS011;17581;43.222;27.924;2023-06-22T10:14:22;17.67;;;10.95;;
30874;SDS011;17581;43.222;27.924;2023-06-22T10:16:51;19.90;;;10.80;;
30874;SDS011;17581;43.222;27.924;2023-06-22T10:19:25;16.80;;;11.52;;
30874;SDS011;17581;43.222;27.924;2023-06-22T10:21:51;25.05;;;11.15;;
30874;SDS011;17581;43.222;27.924;2023-06-22T10:24:17;25.17;;;10.27;;
30874;SDS011;17581;43.222;27.924;2023-06-22T10:26:53;29.23;;;10.48;;
30874;SDS011;17581;43.222;27.924;2023-06-22T10:29:19;23.27;;;9.48;;
30874;SDS011;17581;43.222;27.924;2023-06-22T10:58:40;165.50;;;29.55;;
30874;SDS011;17581;43.222;27.924;2023-06-22T11:01:06;19.35;;;11.18;;
30874;SDS011;17581;43.222;27.924;2023-06-22T11:03:31;17.92;;;9.88;;
30874;SDS011;17581;43.222;27.924;2023-06-22T11:05:56;29.77;;;11.77;;
30874;SDS011;17581;43.222;27.924;2023-06-22T11:08:22;44.60;;;11.15;;
30874;SDS011;17581;43.222;27.924;2023-06-22T11:10:47;23.23;;;10.48;;
30874;SDS011;17581;43.222;27.924;2023-06-22T11:13:13;35.38;;;13.93;;
30874;SDS011;17581;43.222;27.924;2023-06-22T11:15:39;40.83;;;14.77;;
30874;SDS011;17581;43.222;27.924;2023-06-22T11:18:05;15.82;;;10.35;;
30874;SDS011;17581;43.222;27.924;2023-06-22T11:20:32;15.10;;;11.10;;
30874;SDS011;17581;43.222;27.924;2023-06-22T11:23:03;23.87;;;10.23;;
30874;SDS011;17581;43.222;27.924;2023-06-22T11:25:30;42.70;;;13.90;;
30874;SDS011;17581;43.222;27.924;2023-06-22T11:27:56;66.22;;;15.02;;
30874;SDS011;17581;43.222;27.924;2023-06-22T11:30:22;23.05;;;11.25;;
30874;SDS011;17581;43.222;27.924;2023-06-22T11:32:48;23.48;;;10.60;;
30874;SDS011;17581;43.222;27.924;2023-06-22T11:35:14;16.05;;;10.88;;
30874;SDS011;17581;43.222;27.924;2023-06-22T11:37:39;26.38;;;12.30;;
30874;SDS011;17581;43.222;27.924;2023-06-22T11:40:05;33.95;;;13.00;;
30874;SDS011;17581;43.222;27.924;2023-06-22T11:42:34;41.90;;;16.90;;
30874;SDS011;17581;43.222;27.924;2023-06-22T11:45:00;13.77;;;10.63;;
30874;SDS011;17581;43.222;27.924;2023-06-22T11:47:25;25.40;;;11.32;;
30874;SDS011;17581;43.222;27.924;2023-06-22T11:49:51;66.68;;;17.00;;
30874;SDS011;17581;43.222;27.924;2023-06-22T11:52:16;30.80;;;11.65;;
30874;SDS011;17581;43.222;27.924;2023-06-22T11:54:43;30.95;;;12.30;;
30874;SDS011;17581;43.222;27.924;2023-06-22T11:57:08;21.70;;;9.73;;
30874;SDS011;17581;43.222;27.924;2023-06-22T11:59:34;18.67;;;11.27;;
30874;SDS011;17581;43.222;27.924;2023-06-22T12:01:59;20.50;;;10.93;;
30874;SDS011;17581;43.222;27.924;2023-06-22T12:04:28;90.68;;;19.92;;
30874;SDS011;17581;43.222;27.924;2023-06-22T12:06:53;23.20;;;12.85;;
30874;SDS011;17581;43.222;27.924;2023-06-22T12:09:19;43.80;;;13.05;;
30874;SDS011;17581;43.222;27.924;2023-06-22T12:11:44;15.77;;;10.77;;
30874;SDS011;17581;43.222;27.924;2023-06-22T12:14:10;21.52;;;10.48;;
30874;SDS011;17581;43.222;27.924;2023-06-22T12:16:35;28.98;;;11.15;;
30874;SDS011;17581;43.222;27.924;2023-06-22T12:19:01;22.23;;;9.98;;
30874;SDS011;17581;43.222;27.924;2023-06-22T12:21:26;21.35;;;10.95;;
30874;SDS011;17581;43.222;27.924;2023-06-22T12:23:52;23.77;;;10.50;;
30874;SDS011;17581;43.222;27.924;2023-06-22T12:26:17;23.38;;;11.32;;
30874;SDS011;17581;43.222;27.924;2023-06-22T12:28:43;25.65;;;11.18;;
30874;SDS011;17581;43.222;27.924;2023-06-22T12:31:08;21.58;;;12.40;;
30874;SDS011;17581;43.222;27.924;2023-06-22T12:33:34;25.92;;;10.38;;
30874;SDS011;17581;43.222;27.924;2023-06-22T12:35:59;22.13;;;10.88;;
30874;SDS011;17581;43.222;27.924;2023-06-22T12:38:25;49.15;;;13.30;;
30874;SDS011;17581;43.222;27.924;2023-06-22T12:40:51;21.30;;;9.80;;
30874;SDS011;17581;43.222;27.924;2023-06-22T12:43:17;29.10;;;9.93;;
30874;SDS011;17581;43.222;27.924;2023-06-22T12:45:43;14.98;;;9.35;;
30874;SDS011;17581;43.222;27.924;2023-06-22T12:48:08;76.07;;;16.10;;
30874;SDS011;17581;43.222;27.924;2023-06-22T12:50:34;14.15;;;8.90;;
30874;SDS011;17581;43.222;27.924;2023-06-22T12:53:00;15.45;;;9.07;;
30874;SDS011;17581;43.222;27.924;2023-06-22T12:55:27;29.23;;;10.07;;
30874;SDS011;17581;43.222;27.924;2023-06-22T12:57:52;17.88;;;8.70;;
30874;SDS011;17581;43.222;27.924;2023-06-22T13:00:18;25.23;;;9.77;;
30874;SDS011;17581;43.222;27.924;2023-06-22T13:02:44;20.65;;;10.10;;
30874;SDS011;17581;43.222;27.924;2023-06-22T13:05:10;17.35;;;8.68;;
30874;SDS011;17581;43.222;27.924;2023-06-22T13:07:35;26.60;;;9.07;;
30874;SDS011;17581;43.222;27.924;2023-06-22T13:10:01;18.45;;;8.90;;
30874;SDS011;17581;43.222;27.924;2023-06-22T13:12:26;122.15;;;20.52;;
30874;SDS011;17581;43.222;27.924;2023-06-22T13:14:52;47.25;;;12.15;;
30874;SDS011;17581;43.222;27.924;2023-06-22T13:17:18;23.52;;;8.52;;
30874;SDS011;17581;43.222;27.924;2023-06-22T13:19:43;11.13;;;8.57;;
30874;SDS011;17581;43.222;27.924;2023-06-22T13:22:25;18.50;;;8.07;;
30874;SDS011;17581;43.222;27.924;2023-06-22T13:24:55;17.88;;;8.15;;
30874;SDS011;17581;43.222;27.924;2023-06-22T13:27:21;13.95;;;8.50;;
30874;SDS011;17581;43.222;27.924;2023-06-22T13:29:47;17.70;;;8.27;;
30874;SDS011;17581;43.222;27.924;2023-06-22T13:32:13;17.45;;;8.07;;
30874;SDS011;17581;43.222;27.924;2023-06-22T13:34:38;15.65;;;8.00;;
30874;SDS011;17581;43.222;27.924;2023-06-22T13:37:03;51.70;;;11.90;;
30874;SDS011;17581;43.222;27.924;2023-06-22T13:39:29;21.13;;;8.07;;
30874;SDS011;17581;43.222;27.924;2023-06-22T13:41:55;20.73;;;8.13;;
30874;SDS011;17581;43.222;27.924;2023-06-22T13:44:21;32.20;;;8.77;;
30874;SDS011;17581;43.222;27.924;2023-06-22T13:46:47;10.60;;;7.15;;
30874;SDS011;17581;43.222;27.924;2023-06-22T13:49:13;16.00;;;8.60;;
30874;SDS011;17581;43.222;27.924;2023-06-22T13:51:38;33.28;;;10.70;;
30874;SDS011;17581;43.222;27.924;2023-06-22T13:54:04;17.52;;;7.10;;
30874;SDS011;17581;43.222;27.924;2023-06-22T13:56:29;14.77;;;7.40;;
30874;SDS011;17581;43.222;27.924;2023-06-22T13:58:54;25.73;;;8.73;;
30874;SDS011;17581;43.222;27.924;2023-06-22T14:01:20;17.02;;;7.68;;
30874;SDS011;17581;43.222;27.924;2023-06-22T14:03:46;25.50;;;8.20;;
30874;SDS011;17581;43.222;27.924;2023-06-22T14:06:12;15.48;;;7.60;;
30874;SDS011;17581;43.222;27.924;2023-06-22T14:08:38;16.73;;;7.30;;
30874;SDS011;17581;43.222;27.924;2023-06-22T14:11:03;20.50;;;6.82;;
30874;SDS011;17581;43.222;27.924;2023-06-22T14:13:29;19.58;;;8.00;;
30874;SDS011;17581;43.222;27.924;2023-06-22T14:15:54;20.23;;;7.72;;
30874;SDS011;17581;43.222;27.924;2023-06-22T14:18:20;19.98;;;7.53;;
30874;SDS011;17581;43.222;27.924;2023-06-22T14:20:47;13.73;;;7.95;;
30874;SDS011;17581;43.222;27.924;2023-06-22T14:23:13;19.00;;;8.73;;
30874;SDS011;17581;43.222;27.924;2023-06-22T14:25:39;16.30;;;7.82;;
30874;SDS011;17581;43.222;27.924;2023-06-22T14:28:05;15.18;;;7.60;;
30874;SDS011;17581;43.222;27.924;2023-06-22T14:30:30;34.42;;;9.82;;
30874;SDS011;17581;43.222;27.924;2023-06-22T14:32:55;17.45;;;9.00;;
30874;SDS011;17581;43.222;27.924;2023-06-22T14:35:21;14.93;;;8.90;;
30874;SDS011;17581;43.222;27.924;2023-06-22T14:37:46;21.58;;;9.57;;
30874;SDS011;17581;43.222;27.924;2023-06-22T14:40:12;30.10;;;9.13;;
30874;SDS011;17581;43.222;27.924;2023-06-22T14:42:37;19.83;;;10.43;;
30874;SDS011;17581;43.222;27.924;2023-06-22T14:45:03;17.85;;;7.93;;
30874;SDS011;17581;43.222;27.924;2023-06-22T14:47:29;13.32;;;8.73;;
30874;SDS011;17581;43.222;27.924;2023-06-22T14:49:54;25.98;;;9.40;;
30874;SDS011;17581;43.222;27.924;2023-06-22T14:52:20;24.88;;;9.30;;
30874;SDS011;17581;43.222;27.924;2023-06-22T14:54:45;27.52;;;10.43;;
30874;SDS011;17581;43.222;27.924;2023-06-22T14:57:11;33.28;;;9.18;;
30874;SDS011;17581;43.222;27.924;2023-06-22T14:59:36;28.10;;;9.88;;
30874;SDS011;17581;43.222;27.924;2023-06-22T15:02:02;20.08;;;9.02;;
30874;SDS011;17581;43.222;27.924;2023-06-22T15:04:27;16.45;;;8.35;;
30874;SDS011;17581;43.222;27.924;2023-06-22T15:06:59;20.50;;;8.57;;
30874;SDS011;17581;43.222;27.924;2023-06-22T15:09:25;29.60;;;10.50;;
30874;SDS011;17581;43.222;27.924;2023-06-22T15:11:50;31.75;;;9.82;;
30874;SDS011;17581;43.222;27.924;2023-06-22T15:14:16;18.67;;;8.20;;